Registration

All data are given in time UTC except for the places where it is expressly stated to the contrary, The data provided on this website are informative!!!


Actual Weather
 
General weather forecast

A strong westerly, turning to north-westerly wind is forecasted with an average speed from 50 km/h to 70 km/h with gusts from 70 km/h to 90 km/h.
lubelpodkSTRONG WIND (st.1)Possible damages of buildings, roofs, difficulties in troops deployment (patched roads through broken branches and trees).Disturbances in the operation of radiolocation devices.A strong westerly, turning to north-westerly wind is forecasted with an average speed from 50 km/h to 70 km/h with gusts from 70 km/h to 90 km/h.
lodzswimazSTRONG WIND (st.1)Possible damages of buildings, roofs, difficulties in troops deployment (patched roads through broken branches and trees).Disturbances in the operation of radiolocation devices.A strong westerly, turning to north-westerly wind is forecasted with an average speed from 50 km/h to 70 km/h with gusts from 70 km/h to 90 km/h.
slamalSTRONG WIND (st.1)Possible damages of buildings, roofs, difficulties in troops deployment (patched roads through broken branches and trees).Disturbances in the operation of radiolocation devices.A strong westerly, turning to north-westerly wind is forecasted with an average speed from 80 km/h to 100 km/h with gusts up to 120 km/h.
dolzachSTRONG WIND (st.2)Destruction of military infrastructure, roof pickingSubstantial difficulties in troops deployment (broken trees), ife threat.Breaks in the operation of radiolocation devices.A strong westerly, turning to north-westerly wind is forecasted with an average speed from 50 km/h to 70 km/h with gusts from 70 km/h to 90 km/h.
dolopolubuwielzachSTRONG WIND (st.1)Possible damages of buildings, roofs, difficulties in troops deployment (patched roads through broken branches and trees).Disturbances in the operation of radiolocation devices.
Weather - Poland
5°C Szczecin -2°C Suwałki 1°C Warszawa 3°C Poznan
3°C Opole 2°C Kraków 1°C Rzeszów
More cities in Poland

Weather - Europe
4°C Berlin 9°C Paryz 9°C Bruksela -8°C Oslo
3°C Praga 6°C Zagrzeb
More cities in Europe

METAR EPBC 301700Z AUTO 24004KT 6000 -RASN BKN008 01/M00 Q0988=
METAR EPCE 301730Z 36005KT 9999 OVC002 00/M00 Q0987 RMK 002 098 8/8=
METAR EPDA 301730Z 05016KT 9999 SCT011 BKN029 03/01 Q0988 RMK 026 091 5/3=
METAR EPDE 301730Z 19010KT 2500 -SN BR BKN004 BKN011 OVC014 00/M00 Q0990 RMK 000 099 8/5=
METAR EPIR 301730Z 27018KT 9999 BKN024 03/01 Q0987 RMK 029 084 7/7=
METAR EPKS 301730Z 26013G23KT 240V300 9999 -RA OVC015 04/02 Q0990 RMK 035 089 8/8=
METAR EPLK 301730Z 25015KT 9999 -RASN BKN006 OVC014 01/01 Q0991 RMK 011 100 8/7=
METAR EPLY 301730Z 24012KT 9999 OVC020 03/02 Q0989 RMK 029 091 8/8=
METAR EPMB 301730Z VRB02KT 3000 -SN BR SCT005 BKN009 OVC013 00/00 Q0987 RMK 003 100 8/3=
METAR EPMI 301730Z 29013KT 6000 -RA SCT006 BKN012 02/01 Q0988 RMK 019 094 7/4=
METAR EPMM 301730Z 25012KT 210V280 0800 R26/1600N +SN OVC003 00/00 Q0988 RMK 000 100 8/8=
METAR EPNA 301400Z 25010KT 9999 BKN007 BKN013 01/01 Q0986 RMK 009 098 8/5=
METAR EPOK 301730Z 31006KT 5000 -SNRA BR SCT012 OVC020 00/M00 Q0987 RMK 000 097 8/4=
METAR EPPR 301730Z 34002KT 2000 -SN BR SCT006 OVC024 M00/M00 Q0987 RMK M002 098 8/4=
METAR EPPW 301730Z 26014G24KT 9999 SCT013 OVC017 03/03 Q0989 RMK 032 100 8/4=
METAR EPSN 301730Z 28008KT 6000 -RASN BKN007 OVC010 03/02 Q0988 RMK 028 097 8/5=
METAR EPTM 301700Z 23010KT 4000 -SN BR BKN006 OVC011 01/01 Q0990 RMK 008 097 8/6=


 

Copyright©2007 HS-PAF All rights reserved.